Time,TemperatureF,DewpointF,PressureIn,WindDirection,WindDirectionDegrees,WindSpeedMPH,WindSpeedGustMPH,Humidity,HourlyPrecipIn,Conditions,Clouds,dailyrainin,SolarRadiationWatts/m^2,SoftwareType,DateUTC
2013-08-26 00:01:00,81.1,75.9,30.11,ENE,69,1.0,5.0,84,0.00,,,0.00,0.0,meteohub,2013-08-26 04:01:00,
2013-08-26 00:06:00,81.1,75.9,30.11,ENE,69,1.0,5.0,84,0.00,,,0.00,0.0,meteohub,2013-08-26 04:06:00,
2013-08-26 00:11:00,81.1,75.9,30.11,ENE,69,1.0,5.0,84,0.00,,,0.00,0.0,meteohub,2013-08-26 04:11:00,
2013-08-26 00:16:00,81.1,75.9,30.10,ENE,74,2.0,4.0,84,0.00,,,0.00,0.0,meteohub,2013-08-26 04:16:00,
2013-08-26 00:21:00,81.1,75.9,30.10,ENE,74,1.0,3.0,84,0.00,,,0.00,0.0,meteohub,2013-08-26 04:21:00,
2013-08-26 00:26:00,81.1,75.9,30.10,ENE,75,2.0,5.0,84,0.00,,,0.00,0.0,meteohub,2013-08-26 04:26:00,
2013-08-26 00:31:00,81.1,75.9,30.10,ENE,78,2.0,6.0,84,0.00,,,0.00,0.0,meteohub,2013-08-26 04:31:00,
2013-08-26 00:36:00,81.3,76.1,30.09,ENE,76,1.0,6.0,84,0.00,,,0.00,0.0,meteohub,2013-08-26 04:36:00,
2013-08-26 00:41:00,81.3,76.1,30.09,ENE,76,2.0,6.0,84,0.00,,,0.00,0.0,meteohub,2013-08-26 04:41:00,
2013-08-26 00:46:00,81.3,76.1,30.09,ENE,76,1.0,5.0,84,0.00,,,0.00,0.0,meteohub,2013-08-26 04:46:00,
2013-08-26 00:51:00,81.3,76.1,30.08,ENE,76,1.0,4.0,84,0.00,,,0.00,0.0,meteohub,2013-08-26 04:51:00,
2013-08-26 00:56:00,81.3,76.1,30.08,ENE,76,1.0,3.0,84,0.00,,,0.00,0.0,meteohub,2013-08-26 04:56:00,
2013-08-26 01:01:00,81.3,76.1,30.08,ENE,76,1.0,3.0,84,0.00,,,0.00,0.0,meteohub,2013-08-26 05:01:00,
2013-08-26 01:06:00,81.3,76.1,30.08,ENE,76,0.0,3.0,84,0.00,,,0.00,0.0,meteohub,2013-08-26 05:06:00,
2013-08-26 01:11:00,81.3,76.1,30.08,ENE,76,0.0,3.0,84,0.00,,,0.00,0.0,meteohub,2013-08-26 05:11:00,
2013-08-26 01:16:00,81.3,76.1,30.08,ENE,76,1.0,3.0,84,0.00,,,0.00,0.0,meteohub,2013-08-26 05:16:00,
2013-08-26 01:22:00,81.1,75.9,30.08,ENE,68,9.0,9.0,84,0.00,,,0.00,0.0,meteohub,2013-08-26 05:22:00,
2013-08-26 01:27:00,81.0,75.4,30.08,East,97,10.0,14.0,83,0.00,,,0.00,0.0,meteohub,2013-08-26 05:27:00,
2013-08-26 01:32:00,80.4,74.8,30.08,East,101,2.0,14.0,83,0.00,,,0.00,0.0,meteohub,2013-08-26 05:32:00,
2013-08-26 01:37:00,79.9,73.6,30.07,ENE,78,4.0,14.0,81,0.00,,,0.00,0.0,meteohub,2013-08-26 05:37:00,
2013-08-26 01:42:00,79.7,73.0,30.07,ESE,102,5.0,11.0,80,0.00,,,0.00,0.0,meteohub,2013-08-26 05:42:00,
2013-08-26 01:47:00,79.5,72.9,30.07,ESE,102,3.0,7.0,80,0.00,,,0.00,0.0,meteohub,2013-08-26 05:47:00,
2013-08-26 01:52:00,79.5,72.5,30.07,East,88,3.0,7.0,79,0.00,,,0.00,0.0,meteohub,2013-08-26 05:52:00,
2013-08-26 01:57:00,79.5,72.5,30.07,East,87,3.0,5.0,79,0.00,,,0.00,0.0,meteohub,2013-08-26 05:57:00,
2013-08-26 02:02:00,79.5,72.5,30.07,East,87,2.0,5.0,79,0.00,,,0.00,0.0,meteohub,2013-08-26 06:02:00,
2013-08-26 02:07:00,79.7,72.7,30.06,East,88,2.0,3.0,79,0.00,,,0.00,0.0,meteohub,2013-08-26 06:07:00,
2013-08-26 02:12:00,79.9,73.2,30.06,East,88,0.0,3.0,80,0.00,,,0.00,0.0,meteohub,2013-08-26 06:12:00,
2013-08-26 02:17:00,79.9,73.6,30.06,East,88,2.0,3.0,81,0.00,,,0.00,0.0,meteohub,2013-08-26 06:17:00,
2013-08-26 02:22:00,80.1,74.1,30.06,East,88,0.0,3.0,82,0.00,,,0.00,0.0,meteohub,2013-08-26 06:22:00,
2013-08-26 02:27:00,80.1,74.1,30.05,East,90,2.0,5.0,82,0.00,,,0.00,0.0,meteohub,2013-08-26 06:27:00,
2013-08-26 02:32:00,80.1,74.5,30.05,East,94,1.0,5.0,83,0.00,,,0.00,0.0,meteohub,2013-08-26 06:32:00,
2013-08-26 02:37:00,80.1,74.5,30.05,East,94,0.0,5.0,83,0.00,,,0.00,0.0,meteohub,2013-08-26 06:37:00,
2013-08-26 02:42:00,80.2,75.0,30.06,East,92,1.0,5.0,84,0.00,,,0.00,0.0,meteohub,2013-08-26 06:42:00,
2013-08-26 02:47:00,80.2,75.0,30.06,East,92,1.0,5.0,84,0.00,,,0.00,0.0,meteohub,2013-08-26 06:47:00,
2013-08-26 02:52:00,80.2,75.0,30.05,East,92,1.0,3.0,84,0.00,,,0.00,0.0,meteohub,2013-08-26 06:52:00,
2013-08-26 02:57:00,80.1,74.8,30.05,East,92,0.0,2.0,84,0.00,,,0.00,0.0,meteohub,2013-08-26 06:57:00,
2013-08-26 03:02:00,80.1,74.8,30.05,East,92,0.0,2.0,84,0.00,,,0.00,0.0,meteohub,2013-08-26 07:02:00,
2013-08-26 03:07:00,80.1,75.2,30.05,East,92,0.0,2.0,85,0.00,,,0.00,0.0,meteohub,2013-08-26 07:07:00,
2013-08-26 03:12:00,80.1,75.2,30.05,East,92,0.0,2.0,85,0.00,,,0.00,0.0,meteohub,2013-08-26 07:12:00,
2013-08-26 03:17:00,80.1,75.2,30.05,East,92,2.0,3.0,85,0.00,,,0.00,0.0,meteohub,2013-08-26 07:17:00,
2013-08-26 03:22:00,80.1,75.2,30.05,East,92,0.0,3.0,85,0.00,,,0.00,0.0,meteohub,2013-08-26 07:22:00,
2013-08-26 03:27:00,80.1,75.6,30.05,East,92,2.0,3.0,86,0.00,,,0.00,0.0,meteohub,2013-08-26 07:27:00,
2013-08-26 03:32:00,80.1,75.6,30.05,East,89,0.0,3.0,86,0.00,,,0.00,0.0,meteohub,2013-08-26 07:32:00,
2013-08-26 03:37:00,79.9,75.4,30.05,East,89,0.0,3.0,86,0.00,,,0.00,0.0,meteohub,2013-08-26 07:37:00,
2013-08-26 03:42:00,79.9,75.4,30.04,East,89,0.0,3.0,86,0.00,,,0.00,0.0,meteohub,2013-08-26 07:42:00,
2013-08-26 03:47:00,79.9,75.4,30.04,East,90,0.0,2.0,86,0.00,,,0.00,0.0,meteohub,2013-08-26 07:47:00,
2013-08-26 03:52:00,79.9,75.4,30.04,East,90,5.0,5.0,86,0.00,,,0.00,0.0,meteohub,2013-08-26 07:52:00,
2013-08-26 03:57:00,79.9,75.4,30.04,East,89,2.0,8.0,86,0.00,,,0.00,0.0,meteohub,2013-08-26 07:57:00,
2013-08-26 04:02:00,80.1,75.6,30.04,East,90,2.0,8.0,86,0.00,,,0.00,0.0,meteohub,2013-08-26 08:02:00,
2013-08-26 04:07:00,80.1,75.6,30.04,East,90,1.0,8.0,86,0.00,,,0.00,0.0,meteohub,2013-08-26 08:07:00,
2013-08-26 04:12:00,80.1,75.6,30.04,ESE,102,3.0,6.0,86,0.00,,,0.00,0.0,meteohub,2013-08-26 08:12:00,
2013-08-26 04:17:00,80.1,75.6,30.03,ESE,103,1.0,4.0,86,0.00,,,0.00,0.0,meteohub,2013-08-26 08:17:00,
2013-08-26 04:22:00,80.1,75.6,30.03,ESE,111,3.0,4.0,86,0.00,,,0.00,0.0,meteohub,2013-08-26 08:22:00,
2013-08-26 04:27:00,80.1,75.6,30.03,ESE,120,3.0,4.0,86,0.00,,,0.00,0.0,meteohub,2013-08-26 08:27:00,
2013-08-26 04:32:00,80.1,75.6,30.03,ESE,121,0.0,4.0,86,0.00,,,0.00,0.0,meteohub,2013-08-26 08:32:00,
2013-08-26 04:37:00,80.1,75.6,30.03,ESE,121,1.0,4.0,86,0.00,,,0.00,0.0,meteohub,2013-08-26 08:37:00,
2013-08-26 04:42:00,80.1,75.2,30.03,ESE,121,2.0,4.0,85,0.00,,,0.00,0.0,meteohub,2013-08-26 08:42:00,
2013-08-26 04:47:00,80.1,75.2,30.03,ESE,121,0.0,3.0,85,0.00,,,0.00,0.0,meteohub,2013-08-26 08:47:00,
2013-08-26 04:52:00,80.1,75.2,30.02,ESE,121,0.0,3.0,85,0.00,,,0.00,0.0,meteohub,2013-08-26 08:52:00,
2013-08-26 04:57:00,80.1,75.2,30.02,ESE,120,0.0,3.0,85,0.00,,,0.00,0.0,meteohub,2013-08-26 08:57:00,
2013-08-26 05:02:00,80.1,75.6,30.03,ESE,121,0.0,3.0,86,0.00,,,0.00,0.0,meteohub,2013-08-26 09:02:00,
2013-08-26 05:07:00,80.1,75.6,30.03,East,96,0.0,2.0,86,0.00,,,0.00,0.0,meteohub,2013-08-26 09:07:00,
2013-08-26 05:12:00,80.1,75.6,30.03,East,94,0.0,2.0,86,0.00,,,0.00,0.0,meteohub,2013-08-26 09:12:00,
2013-08-26 05:17:00,80.1,75.6,30.03,East,94,3.0,3.0,86,0.00,,,0.00,0.0,meteohub,2013-08-26 09:17:00,
2013-08-26 05:22:00,79.9,75.4,30.03,East,94,0.0,5.0,86,0.00,,,0.00,0.0,meteohub,2013-08-26 09:22:00,
2013-08-26 05:27:00,79.9,75.4,30.03,East,94,0.0,5.0,86,0.00,,,0.00,0.0,meteohub,2013-08-26 09:27:00,
2013-08-26 05:32:00,79.7,75.6,30.03,East,94,0.0,5.0,87,0.00,,,0.00,0.0,meteohub,2013-08-26 09:32:00,
2013-08-26 05:37:00,79.5,75.4,30.03,East,94,0.0,1.0,87,0.00,,,0.00,0.0,meteohub,2013-08-26 09:37:00,
2013-08-26 05:42:00,79.3,75.2,30.04,East,94,0.0,3.0,87,0.00,,,0.00,0.0,meteohub,2013-08-26 09:42:00,
2013-08-26 05:47:00,79.3,75.6,30.04,East,94,0.0,3.0,88,0.00,,,0.00,0.0,meteohub,2013-08-26 09:47:00,
2013-08-26 05:52:00,79.3,75.6,30.04,East,94,1.0,3.0,88,0.00,,,0.00,0.0,meteohub,2013-08-26 09:52:00,
2013-08-26 05:57:00,79.2,75.4,30.04,East,94,1.0,2.0,88,0.00,,,0.00,0.0,meteohub,2013-08-26 09:57:00,
2013-08-26 06:02:00,79.2,75.4,30.04,East,94,1.0,3.0,88,0.00,,,0.00,0.0,meteohub,2013-08-26 10:02:00,
2013-08-26 06:07:00,79.2,75.6,30.04,East,94,2.0,3.0,89,0.00,,,0.00,0.0,meteohub,2013-08-26 10:07:00,
2013-08-26 06:12:00,79.2,75.6,30.04,East,94,2.0,3.0,89,0.00,,,0.00,0.0,meteohub,2013-08-26 10:12:00,
2013-08-26 06:17:00,79.2,75.6,30.04,East,94,2.0,3.0,89,0.00,,,0.00,0.0,meteohub,2013-08-26 10:17:00,
2013-08-26 06:22:00,79.2,75.6,30.04,East,94,0.0,3.0,89,0.00,,,0.00,0.0,meteohub,2013-08-26 10:22:00,
2013-08-26 06:27:00,79.2,75.6,30.04,East,94,0.0,3.0,89,0.00,,,0.00,0.0,meteohub,2013-08-26 10:27:00,
2013-08-26 06:32:00,79.2,75.6,30.05,East,94,0.0,3.0,89,0.00,,,0.00,0.0,meteohub,2013-08-26 10:32:00,
2013-08-26 06:37:00,79.2,75.6,30.05,East,94,0.0,1.0,89,0.00,,,0.00,0.0,meteohub,2013-08-26 10:37:00,
2013-08-26 06:42:00,79.0,75.4,30.05,ENE,75,4.0,4.0,89,0.00,,,0.00,0.0,meteohub,2013-08-26 10:42:00,
2013-08-26 06:47:00,79.0,75.7,30.05,ENE,75,2.0,5.0,90,0.00,,,0.00,0.0,meteohub,2013-08-26 10:47:00,
2013-08-26 06:52:00,79.0,75.7,30.05,ENE,76,1.0,5.0,90,0.00,,,0.00,0.0,meteohub,2013-08-26 10:52:00,
2013-08-26 06:57:00,79.0,75.7,30.05,ENE,66,2.0,5.0,90,0.00,,,0.00,0.0,meteohub,2013-08-26 10:57:00,
2013-08-26 07:02:00,79.0,75.7,30.05,ENE,65,2.0,3.0,90,0.00,,,0.00,0.0,meteohub,2013-08-26 11:02:00,
2013-08-26 07:07:00,79.0,75.7,30.05,ENE,65,1.0,3.0,90,0.00,,,0.00,0.0,meteohub,2013-08-26 11:07:00,
2013-08-26 07:12:00,79.2,75.9,30.05,ENE,65,0.0,3.0,90,0.00,,,0.00,7.0,meteohub,2013-08-26 11:12:00,
2013-08-26 07:17:00,79.2,76.3,30.05,ENE,65,0.0,3.0,91,0.00,,,0.00,9.0,meteohub,2013-08-26 11:17:00,
2013-08-26 07:22:00,79.2,75.9,30.05,ENE,65,0.0,2.0,90,0.00,,,0.00,12.0,meteohub,2013-08-26 11:22:00,
2013-08-26 07:27:00,79.2,76.3,30.05,ENE,65,0.0,1.0,91,0.00,,,0.00,18.0,meteohub,2013-08-26 11:27:00,
2013-08-26 07:32:00,79.2,76.3,30.05,ENE,65,0.0,0.0,91,0.00,,,0.00,21.0,meteohub,2013-08-26 11:32:00,
2013-08-26 07:37:00,79.2,76.3,30.05,ENE,65,0.0,0.0,91,0.00,,,0.00,25.0,meteohub,2013-08-26 11:37:00,
2013-08-26 07:42:00,79.2,76.3,30.05,ENE,65,0.0,0.0,91,0.00,,,0.00,28.0,meteohub,2013-08-26 11:42:00,
2013-08-26 07:47:00,79.2,76.3,30.06,ENE,65,0.0,0.0,91,0.00,,,0.00,35.0,meteohub,2013-08-26 11:47:00,
2013-08-26 07:52:00,79.2,76.3,30.06,ENE,65,0.0,1.0,91,0.00,,,0.00,44.0,meteohub,2013-08-26 11:52:00,
2013-08-26 07:57:00,79.2,76.6,30.06,ENE,65,0.0,1.0,92,0.00,,,0.00,53.0,meteohub,2013-08-26 11:57:00,
2013-08-26 08:02:00,79.3,76.8,30.06,ENE,65,0.0,1.0,92,0.00,,,0.00,62.0,meteohub,2013-08-26 12:02:00,
2013-08-26 08:07:00,79.3,76.8,30.06,ENE,65,0.0,1.0,92,0.00,,,0.00,70.0,meteohub,2013-08-26 12:07:00,
2013-08-26 08:12:00,79.3,76.8,30.06,ENE,65,1.0,3.0,92,0.00,,,0.00,77.0,meteohub,2013-08-26 12:12:00,
2013-08-26 08:17:00,79.5,77.0,30.06,ENE,65,2.0,3.0,92,0.00,,,0.00,77.0,meteohub,2013-08-26 12:17:00,
2013-08-26 08:22:00,79.5,77.0,30.06,ENE,65,1.0,3.0,92,0.00,,,0.00,77.0,meteohub,2013-08-26 12:22:00,
2013-08-26 08:27:00,79.5,77.0,30.06,ENE,65,0.0,3.0,92,0.00,,,0.00,77.0,meteohub,2013-08-26 12:27:00,
2013-08-26 08:32:00,79.7,77.2,30.06,ENE,65,2.0,4.0,92,0.00,,,0.00,81.0,meteohub,2013-08-26 12:32:00,
2013-08-26 08:37:00,79.7,77.2,30.07,North,11,3.0,6.0,92,0.00,,,0.00,86.0,meteohub,2013-08-26 12:37:00,
2013-08-26 08:42:00,79.0,75.7,30.07,North,10,2.0,6.0,90,0.00,,,0.00,97.0,meteohub,2013-08-26 12:42:00,
2013-08-26 08:47:00,79.0,75.7,30.07,North,355,3.0,6.0,90,0.00,,,0.00,114.0,meteohub,2013-08-26 12:47:00,
2013-08-26 08:52:00,78.6,75.0,30.07,North,355,2.0,5.0,89,0.00,,,0.00,132.0,meteohub,2013-08-26 12:52:00,
2013-08-26 08:57:00,78.6,74.8,30.07,North,355,2.0,5.0,88,0.00,,,0.00,148.0,meteohub,2013-08-26 12:57:00,
2013-08-26 09:02:00,78.6,74.5,30.07,North,355,1.0,5.0,87,0.00,,,0.00,162.0,meteohub,2013-08-26 13:02:00,
2013-08-26 09:07:00,78.8,74.7,30.07,North,355,0.0,4.0,87,0.00,,,0.00,179.0,meteohub,2013-08-26 13:07:00,
2013-08-26 09:12:00,79.2,75.0,30.06,North,355,0.0,3.0,87,0.00,,,0.00,195.0,meteohub,2013-08-26 13:12:00,
2013-08-26 09:17:00,79.5,75.0,30.07,North,355,0.0,3.0,86,0.00,,,0.00,206.0,meteohub,2013-08-26 13:17:00,
2013-08-26 09:22:00,80.2,75.0,30.07,North,355,0.0,1.0,84,0.00,,,0.00,216.0,meteohub,2013-08-26 13:22:00,
2013-08-26 09:27:00,81.0,75.7,30.07,North,355,0.0,1.0,84,0.00,,,0.00,213.0,meteohub,2013-08-26 13:27:00,
2013-08-26 09:32:00,81.7,75.9,30.07,North,355,1.0,0.0,83,0.00,,,0.00,220.0,meteohub,2013-08-26 13:32:00,
2013-08-26 09:37:00,81.7,75.9,30.08,East,90,0.0,3.0,83,0.00,,,0.00,244.0,meteohub,2013-08-26 13:37:00,
2013-08-26 09:42:00,81.5,76.3,30.08,East,90,0.0,3.0,84,0.01,,,0.01,239.0,meteohub,2013-08-26 13:42:00,
2013-08-26 09:47:00,81.7,76.6,30.08,East,90,0.0,3.0,85,0.01,,,0.01,232.0,meteohub,2013-08-26 13:47:00,
2013-08-26 09:52:00,81.9,76.8,30.07,East,90,0.0,1.0,85,0.01,,,0.01,214.0,meteohub,2013-08-26 13:52:00,
2013-08-26 09:57:00,82.0,77.4,30.08,East,90,0.0,1.0,86,0.01,,,0.01,229.0,meteohub,2013-08-26 13:57:00,
2013-08-26 10:02:00,82.6,78.3,30.08,East,90,0.0,1.0,87,0.01,,,0.01,272.0,meteohub,2013-08-26 14:02:00,
2013-08-26 10:07:00,82.8,78.1,30.08,East,90,0.0,0.0,86,0.01,,,0.01,264.0,meteohub,2013-08-26 14:07:00,
2013-08-26 10:12:00,82.9,78.3,30.08,East,90,0.0,1.0,86,0.01,,,0.01,311.0,meteohub,2013-08-26 14:12:00,
2013-08-26 10:17:00,82.9,77.9,30.08,East,90,1.0,1.0,85,0.01,,,0.01,420.0,meteohub,2013-08-26 14:17:00,
2013-08-26 10:22:00,83.5,78.4,30.08,East,87,0.0,2.0,85,0.01,,,0.01,392.0,meteohub,2013-08-26 14:22:00,
2013-08-26 10:27:00,83.7,77.9,30.08,ENE,61,4.0,5.0,83,0.01,,,0.01,441.0,meteohub,2013-08-26 14:27:00,
2013-08-26 10:32:00,83.8,77.7,30.08,NE,51,2.0,5.0,82,0.01,,,0.01,452.0,meteohub,2013-08-26 14:32:00,
2013-08-26 10:37:00,84.4,77.9,30.08,NNE,26,6.0,6.0,81,0.00,,,0.01,487.0,meteohub,2013-08-26 14:37:00,
2013-08-26 10:43:00,84.7,77.9,30.08,NNE,26,1.0,6.0,80,0.00,,,0.01,475.0,meteohub,2013-08-26 14:43:00,
2013-08-26 10:48:00,85.5,78.6,30.08,NNE,30,1.0,6.0,80,0.00,,,0.01,585.0,meteohub,2013-08-26 14:48:00,
2013-08-26 10:53:00,85.8,78.6,30.08,NNE,32,2.0,6.0,79,0.00,,,0.01,221.0,meteohub,2013-08-26 14:53:00,
2013-08-26 10:58:00,85.8,77.7,30.08,NE,45,5.0,5.0,77,0.00,,,0.01,243.0,meteohub,2013-08-26 14:58:00,
2013-08-26 11:03:00,85.6,77.2,30.08,NE,50,1.0,7.0,76,0.00,,,0.01,214.0,meteohub,2013-08-26 15:03:00,
2013-08-26 11:08:00,85.5,77.4,30.08,ENE,71,1.0,7.0,77,0.00,,,0.01,260.0,meteohub,2013-08-26 15:08:00,
2013-08-26 11:13:00,85.5,77.7,30.08,East,87,3.0,7.0,78,0.00,,,0.01,304.0,meteohub,2013-08-26 15:13:00,
2013-08-26 11:18:00,85.6,77.5,30.07,ENE,69,1.0,10.0,77,0.00,,,0.01,578.0,meteohub,2013-08-26 15:18:00,
2013-08-26 11:23:00,86.0,76.3,30.07,East,85,5.0,10.0,73,0.00,,,0.01,608.0,meteohub,2013-08-26 15:23:00,
2013-08-26 11:28:00,86.2,76.1,30.07,East,81,5.0,9.0,72,0.00,,,0.01,404.0,meteohub,2013-08-26 15:28:00,
2013-08-26 11:33:00,86.4,75.9,30.07,East,79,6.0,7.0,71,0.00,,,0.01,701.0,meteohub,2013-08-26 15:33:00,
2013-08-26 11:38:00,86.7,74.8,30.07,SSE,149,5.0,7.0,68,0.00,,,0.01,780.0,meteohub,2013-08-26 15:38:00,
2013-08-26 11:43:00,87.3,75.4,30.07,East,90,7.0,8.0,68,0.00,,,0.01,691.0,meteohub,2013-08-26 15:43:00,
2013-08-26 11:48:00,87.4,75.2,30.07,ESE,118,5.0,8.0,67,0.00,,,0.01,749.0,meteohub,2013-08-26 15:48:00,
2013-08-26 11:53:00,87.6,75.4,30.07,East,80,6.0,8.0,67,0.00,,,0.01,835.0,meteohub,2013-08-26 15:53:00,
2013-08-26 11:58:00,88.2,75.7,30.07,East,90,6.0,9.0,67,0.00,,,0.01,742.0,meteohub,2013-08-26 15:58:00,
2013-08-26 12:03:00,88.0,75.6,30.07,ENE,69,2.0,9.0,67,0.00,,,0.01,1044.0,meteohub,2013-08-26 16:03:00,
2013-08-26 12:08:00,88.9,77.0,30.07,ESE,105,7.0,9.0,68,0.00,,,0.01,977.0,meteohub,2013-08-26 16:08:00,
2013-08-26 12:13:00,89.1,74.8,30.06,East,91,3.0,8.0,63,0.00,,,0.01,981.0,meteohub,2013-08-26 16:13:00,
2013-08-26 12:18:00,88.9,76.1,30.06,ESE,115,5.0,11.0,66,0.00,,,0.01,963.0,meteohub,2013-08-26 16:18:00,
2013-08-26 12:23:00,88.7,75.4,30.06,ESE,116,7.0,11.0,65,0.00,,,0.01,1076.0,meteohub,2013-08-26 16:23:00,
2013-08-26 12:28:00,88.9,76.5,30.06,ESE,113,7.0,13.0,67,0.00,,,0.01,1088.0,meteohub,2013-08-26 16:28:00,
2013-08-26 12:33:00,89.1,76.3,30.06,East,82,10.0,13.0,66,0.00,,,0.01,1144.0,meteohub,2013-08-26 16:33:00,
2013-08-26 12:38:00,88.3,75.9,30.06,ENE,78,2.0,15.0,67,0.00,,,0.01,316.0,meteohub,2013-08-26 16:38:00,
2013-08-26 12:43:00,88.2,75.4,30.06,ENE,67,7.0,15.0,66,0.00,,,0.01,571.0,meteohub,2013-08-26 16:43:00,
2013-08-26 12:48:00,88.3,75.6,30.05,ENE,71,7.0,15.0,66,0.00,,,0.01,571.0,meteohub,2013-08-26 16:48:00,
2013-08-26 12:53:00,88.7,75.9,30.05,East,101,10.0,13.0,66,0.00,,,0.01,272.0,meteohub,2013-08-26 16:53:00,
2013-08-26 12:58:00,88.0,75.2,30.05,NE,40,4.0,13.0,66,0.00,,,0.01,378.0,meteohub,2013-08-26 16:58:00,
2013-08-26 13:03:00,87.6,75.4,30.05,ENE,67,8.0,11.0,67,0.00,,,0.01,338.0,meteohub,2013-08-26 17:03:00,
2013-08-26 13:08:00,87.3,75.4,30.05,ENE,57,5.0,11.0,68,0.00,,,0.01,371.0,meteohub,2013-08-26 17:08:00,
2013-08-26 13:13:00,87.3,75.4,30.05,East,93,5.0,12.0,68,0.00,,,0.01,209.0,meteohub,2013-08-26 17:13:00,
2013-08-26 13:18:00,87.1,75.2,30.05,East,88,6.0,12.0,68,0.00,,,0.01,336.0,meteohub,2013-08-26 17:18:00,
2013-08-26 13:23:00,86.9,75.0,30.05,East,98,6.0,12.0,68,0.00,,,0.01,710.0,meteohub,2013-08-26 17:23:00,
2013-08-26 13:28:00,87.1,75.2,30.05,ESE,114,8.0,12.0,68,0.00,,,0.01,954.0,meteohub,2013-08-26 17:28:00,
2013-08-26 13:33:00,87.4,75.2,30.05,East,101,8.0,13.0,67,0.00,,,0.01,963.0,meteohub,2013-08-26 17:33:00,
2013-08-26 13:38:00,88.0,74.7,30.05,ENE,76,7.0,15.0,65,0.00,,,0.01,1025.0,meteohub,2013-08-26 17:38:00,
2013-08-26 13:43:00,88.3,74.1,30.05,East,101,6.0,15.0,63,0.00,,,0.01,1032.0,meteohub,2013-08-26 17:43:00,
2013-08-26 13:48:00,88.9,74.1,30.04,SE,135,5.0,14.0,62,0.00,,,0.01,1016.0,meteohub,2013-08-26 17:48:00,
2013-08-26 13:53:00,88.9,74.7,30.04,ESE,104,10.0,14.0,63,0.00,,,0.01,1032.0,meteohub,2013-08-26 17:53:00,
2013-08-26 13:58:00,88.9,74.1,30.04,East,97,9.0,13.0,62,0.00,,,0.01,1074.0,meteohub,2013-08-26 17:58:00,
2013-08-26 14:03:00,88.7,74.5,30.04,ESE,109,7.0,14.0,63,0.00,,,0.01,1044.0,meteohub,2013-08-26 18:03:00,
2013-08-26 14:08:00,89.1,74.8,30.04,SE,136,4.0,15.0,63,0.00,,,0.01,1065.0,meteohub,2013-08-26 18:08:00,
2013-08-26 14:13:00,88.9,73.8,30.03,East,101,5.0,15.0,61,0.00,,,0.01,457.0,meteohub,2013-08-26 18:13:00,
2013-08-26 14:18:00,88.3,75.0,30.03,SE,129,7.0,15.0,65,0.00,,,0.01,633.0,meteohub,2013-08-26 18:18:00,
2013-08-26 14:23:00,87.3,74.5,30.03,ENE,65,5.0,15.0,66,0.00,,,0.01,721.0,meteohub,2013-08-26 18:23:00,
2013-08-26 14:28:00,87.6,73.4,30.02,SE,124,10.0,15.0,63,0.00,,,0.01,1009.0,meteohub,2013-08-26 18:28:00,
2013-08-26 14:33:00,88.3,74.1,30.03,East,88,9.0,15.0,63,0.00,,,0.01,1042.0,meteohub,2013-08-26 18:33:00,
2013-08-26 14:38:00,88.3,75.0,30.02,East,92,9.0,15.0,65,0.00,,,0.01,798.0,meteohub,2013-08-26 18:38:00,
2013-08-26 14:44:00,87.1,75.2,30.03,SSE,150,12.0,14.0,68,0.00,,,0.01,239.0,meteohub,2013-08-26 18:44:00,
2013-08-26 14:49:00,84.4,74.3,30.02,SSE,150,12.0,19.0,72,0.00,,,0.01,155.0,meteohub,2013-08-26 18:49:00,
2013-08-26 14:54:00,83.5,74.3,30.02,SSE,148,10.0,19.0,74,0.00,,,0.01,118.0,meteohub,2013-08-26 18:54:00,
2013-08-26 14:59:00,83.5,74.7,30.02,SSE,150,9.0,19.0,75,0.00,,,0.01,162.0,meteohub,2013-08-26 18:59:00,
2013-08-26 15:04:00,83.3,74.5,30.02,SE,127,6.0,19.0,75,0.00,,,0.01,267.0,meteohub,2013-08-26 19:04:00,
2013-08-26 15:09:00,83.7,75.2,30.02,ESE,108,10.0,15.0,76,0.00,,,0.01,281.0,meteohub,2013-08-26 19:09:00,
2013-08-26 15:14:00,84.7,75.6,30.01,ESE,119,11.0,12.0,74,0.00,,,0.01,810.0,meteohub,2013-08-26 19:14:00,
2013-08-26 15:19:00,86.2,76.1,30.01,ESE,118,8.0,15.0,72,0.00,,,0.01,810.0,meteohub,2013-08-26 19:19:00,
2013-08-26 15:24:00,86.4,75.4,30.01,East,91,11.0,15.0,70,0.00,,,0.01,146.0,meteohub,2013-08-26 19:24:00,
2013-08-26 15:29:00,85.6,75.2,30.01,ESE,116,9.0,15.0,71,0.00,,,0.01,149.0,meteohub,2013-08-26 19:29:00,
2013-08-26 15:34:00,84.9,74.8,30.01,ESE,114,7.0,15.0,72,0.00,,,0.01,127.0,meteohub,2013-08-26 19:34:00,
2013-08-26 15:39:00,84.7,75.2,30.02,SE,125,4.0,15.0,73,0.00,,,0.01,206.0,meteohub,2013-08-26 19:39:00,
2013-08-26 15:44:00,84.7,75.2,30.02,SE,136,6.0,15.0,73,0.00,,,0.01,120.0,meteohub,2013-08-26 19:44:00,
2013-08-26 15:49:00,84.6,75.4,30.02,SE,136,9.0,15.0,74,0.00,,,0.01,116.0,meteohub,2013-08-26 19:49:00,
2013-08-26 15:54:00,84.2,75.4,30.02,SSE,158,5.0,10.0,75,0.00,,,0.01,113.0,meteohub,2013-08-26 19:54:00,
2013-08-26 15:59:00,83.8,75.0,30.02,SSE,152,4.0,10.0,75,0.00,,,0.01,109.0,meteohub,2013-08-26 19:59:00,
2013-08-26 16:04:00,83.8,75.0,30.02,SE,132,2.0,10.0,75,0.00,,,0.01,118.0,meteohub,2013-08-26 20:04:00,
2013-08-26 16:09:00,83.8,74.7,30.00,SE,135,4.0,9.0,74,0.00,,,0.01,132.0,meteohub,2013-08-26 20:09:00,
2013-08-26 16:14:00,84.0,74.8,30.01,SE,133,5.0,9.0,74,0.00,,,0.01,141.0,meteohub,2013-08-26 20:14:00,
2013-08-26 16:19:00,84.0,74.8,30.01,SE,131,4.0,9.0,74,0.00,,,0.01,139.0,meteohub,2013-08-26 20:19:00,
2013-08-26 16:24:00,83.8,74.7,30.01,ESE,118,7.0,9.0,74,0.00,,,0.01,127.0,meteohub,2013-08-26 20:24:00,
2013-08-26 16:29:00,83.7,74.5,30.01,East,88,8.0,8.0,74,0.00,,,0.01,113.0,meteohub,2013-08-26 20:29:00,
2013-08-26 16:34:00,83.7,74.8,30.01,ESE,108,5.0,8.0,75,0.00,,,0.01,104.0,meteohub,2013-08-26 20:34:00,
2013-08-26 16:39:00,83.5,74.7,30.01,ESE,113,3.0,10.0,75,0.00,,,0.01,97.0,meteohub,2013-08-26 20:39:00,
2013-08-26 16:45:00,83.7,74.8,30.01,ESE,102,3.0,10.0,75,0.00,,,0.01,77.0,meteohub,2013-08-26 20:45:00,
2013-08-26 16:50:00,83.5,74.3,30.02,SSE,158,3.0,9.0,74,0.00,,,0.01,79.0,meteohub,2013-08-26 20:50:00,
2013-08-26 16:55:00,83.5,74.7,30.01,SSE,156,1.0,8.0,75,0.00,,,0.01,100.0,meteohub,2013-08-26 20:55:00,
2013-08-26 17:00:00,83.5,74.7,30.01,SE,126,3.0,8.0,75,0.00,,,0.01,116.0,meteohub,2013-08-26 21:00:00,
2013-08-26 17:05:00,83.5,74.7,30.01,SE,134,1.0,7.0,75,0.00,,,0.01,120.0,meteohub,2013-08-26 21:05:00,
2013-08-26 17:10:00,83.7,74.8,30.01,SSE,156,4.0,7.0,75,0.00,,,0.01,121.0,meteohub,2013-08-26 21:10:00,
2013-08-26 17:15:00,83.7,75.2,30.00,SE,132,5.0,7.0,76,0.00,,,0.01,146.0,meteohub,2013-08-26 21:15:00,
2013-08-26 17:20:00,83.8,75.4,30.01,ESE,103,5.0,6.0,76,0.00,,,0.01,178.0,meteohub,2013-08-26 21:20:00,
2013-08-26 17:25:00,83.8,75.0,30.01,SSE,150,5.0,7.0,75,0.00,,,0.01,279.0,meteohub,2013-08-26 21:25:00,
2013-08-26 17:30:00,84.0,75.6,30.01,SSE,167,4.0,7.0,76,0.00,,,0.01,118.0,meteohub,2013-08-26 21:30:00,
2013-08-26 17:35:00,83.7,75.2,30.01,South,171,4.0,7.0,76,0.00,,,0.01,111.0,meteohub,2013-08-26 21:35:00,
2013-08-26 17:40:00,83.5,75.6,30.01,SSW,194,4.0,9.0,77,0.00,,,0.01,98.0,meteohub,2013-08-26 21:40:00,
2013-08-26 17:45:00,83.1,75.2,30.01,WNW,295,3.0,9.0,77,0.00,,,0.01,88.0,meteohub,2013-08-26 21:45:00,
2013-08-26 17:50:00,82.2,74.7,30.01,NW,315,4.0,7.0,78,0.00,,,0.01,63.0,meteohub,2013-08-26 21:50:00,
2013-08-26 17:55:00,81.5,74.3,30.01,NW,323,8.0,8.0,79,0.00,,,0.01,28.0,meteohub,2013-08-26 21:55:00,
2013-08-26 18:00:00,81.1,73.9,30.02,NNE,16,8.0,11.0,79,0.00,,,0.01,5.0,meteohub,2013-08-26 22:00:00,
2013-08-26 18:05:00,80.4,73.8,30.01,WSW,245,1.0,11.0,80,0.00,,,0.01,0.0,meteohub,2013-08-26 22:05:00,
2013-08-26 18:10:00,79.5,73.9,30.03,South,169,1.0,11.0,83,0.00,,,0.01,0.0,meteohub,2013-08-26 22:10:00,
2013-08-26 18:15:00,78.6,73.4,30.03,North,5,11.0,15.0,84,0.00,,,0.01,0.0,meteohub,2013-08-26 22:15:00,
2013-08-26 18:20:00,77.4,72.5,30.03,NNW,347,20.0,22.0,85,0.05,,,0.03,5.0,meteohub,2013-08-26 22:20:00,
2013-08-26 18:25:00,75.9,71.4,30.02,NNE,14,13.0,22.0,86,0.11,,,0.12,12.0,meteohub,2013-08-26 22:25:00,
2013-08-26 18:30:00,74.5,70.3,30.03,NNE,17,10.0,22.0,87,0.21,,,0.22,19.0,meteohub,2013-08-26 22:30:00,
2013-08-26 18:35:00,73.8,70.0,30.04,North,0,14.0,22.0,88,0.26,,,0.27,25.0,meteohub,2013-08-26 22:35:00,
2013-08-26 18:40:00,72.7,68.9,30.04,North,10,8.0,21.0,88,0.36,,,0.37,25.0,meteohub,2013-08-26 22:40:00,
2013-08-26 18:45:00,72.3,68.5,30.03,ENE,68,4.0,21.0,88,0.40,,,0.41,19.0,meteohub,2013-08-26 22:45:00,
2013-08-26 18:50:00,72.1,68.7,30.04,East,82,3.0,12.0,89,0.42,,,0.43,18.0,meteohub,2013-08-26 22:50:00,
2013-08-26 18:55:00,72.0,68.9,30.04,East,86,5.0,10.0,90,0.49,,,0.50,14.0,meteohub,2013-08-26 22:55:00,
2013-08-26 19:00:00,71.8,68.7,30.03,ENE,74,0.0,10.0,90,0.56,,,0.53,16.0,meteohub,2013-08-26 23:00:00,
2013-08-26 19:05:00,71.8,69.1,30.02,West,265,5.0,7.0,91,0.59,,,0.60,16.0,meteohub,2013-08-26 23:05:00,
2013-08-26 19:10:00,72.0,69.4,30.02,NNW,331,2.0,7.0,92,0.64,,,0.65,16.0,meteohub,2013-08-26 23:10:00,
2013-08-26 19:15:00,71.8,69.3,30.02,West,275,4.0,5.0,92,0.63,,,0.66,19.0,meteohub,2013-08-26 23:15:00,
2013-08-26 19:20:00,71.8,69.3,30.02,West,281,2.0,5.0,92,0.60,,,0.67,19.0,meteohub,2013-08-26 23:20:00,
2013-08-26 19:25:00,71.4,68.9,30.02,NW,323,3.0,5.0,92,0.50,,,0.67,12.0,meteohub,2013-08-26 23:25:00,
2013-08-26 19:30:00,71.6,69.4,30.02,NW,311,1.0,5.0,93,0.42,,,0.67,7.0,meteohub,2013-08-26 23:30:00,
2013-08-26 19:36:00,72.0,69.8,30.03,North,351,4.0,5.0,93,0.35,,,0.67,0.0,meteohub,2013-08-26 23:36:00,
2013-08-26 19:41:00,72.3,70.2,30.02,NNE,33,3.0,6.0,93,0.28,,,0.67,0.0,meteohub,2013-08-26 23:41:00,
2013-08-26 19:46:00,72.1,70.0,30.02,NNE,33,1.0,6.0,93,0.25,,,0.67,0.0,meteohub,2013-08-26 23:46:00,
2013-08-26 19:51:00,72.1,70.0,30.03,NNE,33,0.0,6.0,93,0.21,,,0.67,0.0,meteohub,2013-08-26 23:51:00,
2013-08-26 19:56:00,72.3,70.2,30.02,NNE,33,1.0,4.0,93,0.15,,,0.67,0.0,meteohub,2013-08-26 23:56:00,
2013-08-26 20:01:00,72.3,70.2,30.02,NNE,33,1.0,3.0,93,0.10,,,0.67,0.0,meteohub,2013-08-27 00:01:00,
2013-08-26 20:06:00,72.3,70.2,30.02,NNE,33,3.0,3.0,93,0.05,,,0.67,0.0,meteohub,2013-08-27 00:06:00,
2013-08-26 20:11:00,72.3,70.2,30.02,NNE,32,1.0,3.0,93,0.01,,,0.67,0.0,meteohub,2013-08-27 00:11:00,
2013-08-26 20:16:00,72.7,70.5,30.02,NNE,33,0.0,3.0,93,0.00,,,0.67,0.0,meteohub,2013-08-27 00:16:00,
2013-08-26 20:21:00,72.7,70.5,30.02,NNE,32,0.0,3.0,93,0.00,,,0.67,0.0,meteohub,2013-08-27 00:21:00,
2013-08-26 20:26:00,72.9,70.7,30.02,NNE,33,0.0,2.0,93,0.00,,,0.67,0.0,meteohub,2013-08-27 00:26:00,
2013-08-26 20:31:00,72.9,71.1,30.03,NNE,33,0.0,2.0,94,0.00,,,0.67,0.0,meteohub,2013-08-27 00:31:00,
2013-08-26 20:36:00,72.9,71.1,30.03,NNE,32,0.0,2.0,94,0.00,,,0.67,0.0,meteohub,2013-08-27 00:36:00,
2013-08-26 20:41:00,73.0,71.2,30.03,NNE,33,0.0,2.0,94,0.00,,,0.67,0.0,meteohub,2013-08-27 00:41:00,
2013-08-26 20:46:00,73.2,71.4,30.02,NNE,33,0.0,2.0,94,0.00,,,0.67,0.0,meteohub,2013-08-27 00:46:00,
2013-08-26 20:51:00,73.2,71.4,30.02,NNE,32,0.0,0.0,94,0.00,,,0.67,0.0,meteohub,2013-08-27 00:51:00,
2013-08-26 20:56:00,73.2,71.4,30.02,NNE,32,2.0,0.0,94,0.00,,,0.67,0.0,meteohub,2013-08-27 00:56:00,
2013-08-26 21:01:00,73.2,71.4,30.02,NNE,32,0.0,2.0,94,0.00,,,0.67,0.0,meteohub,2013-08-27 01:01:00,
2013-08-26 21:06:00,73.2,71.4,30.02,NNE,32,0.0,2.0,94,0.00,,,0.67,0.0,meteohub,2013-08-27 01:06:00,
2013-08-26 21:11:00,73.4,71.6,30.02,NNE,32,0.0,2.0,94,0.00,,,0.67,0.0,meteohub,2013-08-27 01:11:00,
2013-08-26 21:16:00,73.6,72.1,30.02,NNE,22,2.0,3.0,95,0.00,,,0.67,0.0,meteohub,2013-08-27 01:16:00,
2013-08-26 21:21:00,73.6,72.1,30.02,NNE,22,0.0,3.0,95,0.00,,,0.67,0.0,meteohub,2013-08-27 01:21:00,
2013-08-26 21:26:00,73.6,72.1,30.01,NNE,22,0.0,3.0,95,0.00,,,0.67,0.0,meteohub,2013-08-27 01:26:00,
2013-08-26 21:31:00,73.6,72.1,30.02,NNE,22,1.0,2.0,95,0.00,,,0.67,0.0,meteohub,2013-08-27 01:31:00,
2013-08-26 21:36:00,73.6,72.1,30.02,NNE,22,0.0,1.0,95,0.00,,,0.67,0.0,meteohub,2013-08-27 01:36:00,
2013-08-26 21:41:00,73.6,72.1,30.03,NNE,22,1.0,2.0,95,0.00,,,0.67,0.0,meteohub,2013-08-27 01:41:00,
2013-08-26 21:46:00,73.6,72.1,30.03,ENE,67,1.0,2.0,95,0.00,,,0.67,0.0,meteohub,2013-08-27 01:46:00,
2013-08-26 21:51:00,73.2,71.8,30.03,ENE,68,0.0,3.0,95,0.00,,,0.67,0.0,meteohub,2013-08-27 01:51:00,
2013-08-26 21:56:00,73.4,72.0,30.03,ENE,76,1.0,3.0,95,0.00,,,0.67,0.0,meteohub,2013-08-27 01:56:00,
2013-08-26 22:01:00,73.8,72.3,30.03,ENE,76,0.0,3.0,95,0.00,,,0.67,0.0,meteohub,2013-08-27 02:01:00,
2013-08-26 22:06:00,73.8,72.3,30.03,ENE,76,0.0,2.0,95,0.00,,,0.67,0.0,meteohub,2013-08-27 02:06:00,
2013-08-26 22:11:00,73.8,72.3,30.03,ENE,76,0.0,2.0,95,0.00,,,0.67,0.0,meteohub,2013-08-27 02:11:00,
2013-08-26 22:16:00,73.8,72.3,30.04,ENE,76,0.0,0.0,95,0.00,,,0.67,0.0,meteohub,2013-08-27 02:16:00,
2013-08-26 22:21:00,73.9,72.5,30.03,ENE,76,0.0,0.0,95,0.00,,,0.67,0.0,meteohub,2013-08-27 02:21:00,
2013-08-26 22:26:00,73.9,72.5,30.03,ENE,76,0.0,1.0,95,0.00,,,0.67,0.0,meteohub,2013-08-27 02:26:00,
2013-08-26 22:31:00,74.1,72.7,30.03,ENE,76,0.0,1.0,95,0.00,,,0.67,0.0,meteohub,2013-08-27 02:31:00,
2013-08-26 22:36:00,74.1,72.7,30.03,ENE,76,0.0,0.0,95,0.00,,,0.67,0.0,meteohub,2013-08-27 02:36:00,
2013-08-26 22:41:00,74.1,72.7,30.02,ENE,76,2.0,2.0,95,0.00,,,0.67,0.0,meteohub,2013-08-27 02:41:00,
2013-08-26 22:46:00,74.1,72.7,30.02,ENE,59,1.0,2.0,95,0.00,,,0.67,0.0,meteohub,2013-08-27 02:46:00,
2013-08-26 22:51:00,74.3,72.9,30.03,ENE,59,0.0,3.0,95,0.00,,,0.67,0.0,meteohub,2013-08-27 02:51:00,
2013-08-26 22:56:00,74.5,73.0,30.03,ENE,59,1.0,3.0,95,0.00,,,0.67,0.0,meteohub,2013-08-27 02:56:00,
2013-08-26 23:01:00,74.5,73.0,30.03,ENE,59,2.0,3.0,95,0.00,,,0.67,0.0,meteohub,2013-08-27 03:01:00,
2013-08-26 23:06:00,74.5,73.0,30.04,ENE,59,3.0,3.0,95,0.00,,,0.67,0.0,meteohub,2013-08-27 03:06:00,
2013-08-26 23:12:00,74.5,73.0,30.04,NNE,27,1.0,4.0,95,0.00,,,0.67,0.0,meteohub,2013-08-27 03:12:00,
2013-08-26 23:17:00,74.5,73.2,30.04,NNE,30,2.0,4.0,96,0.00,,,0.67,0.0,meteohub,2013-08-27 03:17:00,
2013-08-26 23:22:00,74.7,73.2,30.04,NNE,30,3.0,4.0,95,0.00,,,0.67,0.0,meteohub,2013-08-27 03:22:00,
2013-08-26 23:27:00,74.7,73.4,30.04,NNE,30,2.0,4.0,96,0.00,,,0.67,0.0,meteohub,2013-08-27 03:27:00,
2013-08-26 23:32:00,74.7,73.2,30.03,NNE,23,3.0,4.0,95,0.00,,,0.67,0.0,meteohub,2013-08-27 03:32:00,
2013-08-26 23:37:00,74.8,73.6,30.04,NNE,24,2.0,4.0,96,0.00,,,0.67,0.0,meteohub,2013-08-27 03:37:00,
2013-08-26 23:42:00,74.8,73.6,30.04,NNE,30,1.0,4.0,96,0.00,,,0.67,0.0,meteohub,2013-08-27 03:42:00,
2013-08-26 23:47:00,74.8,73.6,30.04,NNE,30,0.0,4.0,96,0.00,,,0.67,0.0,meteohub,2013-08-27 03:47:00,
2013-08-26 23:52:00,74.7,73.2,30.03,NNE,30,0.0,4.0,95,0.00,,,0.67,0.0,meteohub,2013-08-27 03:52:00,
2013-08-26 23:57:00,74.7,73.2,30.03,NNE,30,0.0,3.0,95,0.00,,,0.67,0.0,meteohub,2013-08-27 03:57:00,